Newburyport, Massachusetts
Current Conditions -  °F | °C
As of 12:54 PM on Saturday 25 Oct 2014 (Local Time) from KLWM Reporting Station
Clear Clear  
Wind Chill: 64°   Ceiling: Unl
Heat Index: 64°   Visibility: 10mi
Dew Point: 40°   Wind: 9mph
Humidity: 41%   Direction: 290°WNW
Pressure: 29.67"   Gusts: NA
Location:  42.81°N, 70.87°W
Report Text: KLWM 251654Z 29008KT 10SM CLR 18/04 A2967 RMK AO2 SLP046 T01780044
Loading
Personal Weather Stations






























Interactive Weather Map
Tropical Storm Tracking
New forecast layout! Learn more

10-Day Weather Forecast

Advertisements
Track Severe Weather on mobile